Hamburg Express — DFKM2 — position and weather

sailwx.info

Track history (hours):
 
Tides and Currents Weather Stations Pressure Air Temp Water Temp Dewpoint Dewpoint Depression Visibility Wind Speed Wind Dir Waves Ship Positions

Hamburg Express

Last reported at 2016-Jul-27 01:33 UTC. Time now 2016-Jul-27 01:56 UTC.
Position N 38°09' W 009°41'.

Length 366 m; draft 14.7 m.

Type: Cargo ship. MMSI: 218774000.

Date/timePositionNaut miles runAvg speedWind from/ knotsBaromVisibWave heightAir tempDewpointWater temp
2016-Jul-27 01:33N 38°09' W 009°41'2019.7
2016-Jul-27 00:33N 37°50' W 009°36'2019.6
2016-Jul-26 23:32N 37°31' W 009°30'2019.7
2016-Jul-26 22:32N 37°11' W 009°26'1919.7
2016-Jul-26 21:33N 36°52' W 009°20'1919.4
2016-Jul-26 20:33N 36°43' W 008°59'2019.6
2016-Jul-26 19:33N 36°37' W 008°36'1919.3
2016-Jul-26 18:33N 36°31' W 008°13'2020.0
2016-Jul-26 17:33N 36°24' W 007°50'2020.4
2016-Jul-26 16:33N 36°17' W 007°26'8920.4
2016-Jul-26 12:13N 35°58' W 005°39'1218.5
2016-Jul-26 11:34N 36°01' W 005°24'15220.9
2016-Jul-26 04:16N 36°25' W 002°18'3721.5
2016-Jul-26 02:33N 36°31' W 001°33'2221.5
2016-Jul-26 01:33N 36°35' W 001°06'2121.0
2016-Jul-26 00:33N 36°39' W 000°40'2120.7
2016-Jul-25 23:33N 36°43' W 000°15'2020.5
2016-Jul-25 22:33N 36°46' E 000°10'2121.2
2016-Jul-25 21:33N 36°49' E 000°36'2120.9
2016-Jul-25 20:33N 36°52' E 001°02'2020.8
2016-Jul-25 19:33N 36°56' E 001°28'2120.9
2016-Jul-25 18:33N 37°00' E 001°53'2221.3
2016-Jul-25 17:31N 37°03' E 002°21'46720.3
2016-Jul-24 18:33N 37°06' E 012°06'2020.6
2016-Jul-24 17:34N 37°01' E 012°31'2020.3
2016-Jul-24 16:34N 36°56' E 012°55'2020.0
2016-Jul-24 15:34N 36°51' E 013°20'2019.8
2016-Jul-24 14:34N 36°47' E 013°44'2020.0
2016-Jul-24 13:34N 36°43' E 014°08'2121.0
2016-Jul-24 12:34N 36°39' E 014°34'2120.8
2016-Jul-24 11:34N 36°33' E 014°59'2121.0
2016-Jul-24 10:33N 36°28' E 015°25'77620.8
2016-Jul-22 21:09N 32°26' E 030°19'1320.7
2016-Jul-22 20:31N 32°21' E 030°34'2020.6
2016-Jul-22 19:34N 32°14' E 030°55'2220.5
2016-Jul-22 18:29N 32°03' E 031°19'  
Track history (hours):
 
Tides and Currents Weather Stations Pressure Air Temp Water Temp Dewpoint Dewpoint Depression Visibility Wind Speed Wind Dir Waves Ship Positions

Hamburg Express

Last reported at 2016-Jul-27 01:33 UTC. Time now 2016-Jul-27 01:56 UTC.
Position N 38°09' W 009°41'.

Length 366 m; draft 14.7 m.

Type: Cargo ship. MMSI: 218774000.

Date/timePositionNaut miles runAvg speedWind from/ knotsBaromVisibWave heightAir tempDewpointWater temp
2016-Jul-27 01:33N 38°09' W 009°41'2019.7
2016-Jul-27 00:33N 37°50' W 009°36'2019.6
2016-Jul-26 23:32N 37°31' W 009°30'2019.7
2016-Jul-26 22:32N 37°11' W 009°26'1919.7
2016-Jul-26 21:33N 36°52' W 009°20'1919.4
2016-Jul-26 20:33N 36°43' W 008°59'2019.6
2016-Jul-26 19:33N 36°37' W 008°36'1919.3
2016-Jul-26 18:33N 36°31' W 008°13'2020.0
2016-Jul-26 17:33N 36°24' W 007°50'2020.4
2016-Jul-26 16:33N 36°17' W 007°26'8920.4
2016-Jul-26 12:13N 35°58' W 005°39'1218.5
2016-Jul-26 11:34N 36°01' W 005°24'15220.9
2016-Jul-26 04:16N 36°25' W 002°18'3721.5
2016-Jul-26 02:33N 36°31' W 001°33'2221.5
2016-Jul-26 01:33N 36°35' W 001°06'2121.0
2016-Jul-26 00:33N 36°39' W 000°40'2120.7
2016-Jul-25 23:33N 36°43' W 000°15'2020.5
2016-Jul-25 22:33N 36°46' E 000°10'2121.2
2016-Jul-25 21:33N 36°49' E 000°36'2120.9
2016-Jul-25 20:33N 36°52' E 001°02'2020.8
2016-Jul-25 19:33N 36°56' E 001°28'2120.9
2016-Jul-25 18:33N 37°00' E 001°53'2221.3
2016-Jul-25 17:31N 37°03' E 002°21'46720.3
2016-Jul-24 18:33N 37°06' E 012°06'2020.6
2016-Jul-24 17:34N 37°01' E 012°31'2020.3
2016-Jul-24 16:34N 36°56' E 012°55'2020.0
2016-Jul-24 15:34N 36°51' E 013°20'2019.8
2016-Jul-24 14:34N 36°47' E 013°44'2020.0
2016-Jul-24 13:34N 36°43' E 014°08'2121.0
2016-Jul-24 12:34N 36°39' E 014°34'2120.8
2016-Jul-24 11:34N 36°33' E 014°59'2121.0
2016-Jul-24 10:33N 36°28' E 015°25'77620.8
2016-Jul-22 21:09N 32°26' E 030°19'1320.7
2016-Jul-22 20:31N 32°21' E 030°34'2020.6
2016-Jul-22 19:34N 32°14' E 030°55'2220.5
2016-Jul-22 18:29N 32°03' E 031°19'  

Dump ship's entire track history